Time;durP1;ratioP1;P1;durP2;ratioP2;P2;SDS_P1;SDS_P2;PMS_P1;PMS_P2;Temp;Humidity;BMP_temperature;BMP_pressure;BME280_temperature;BME280_humidity;BME280_pressure;Samples;Min_cycle;Max_cycle;Signal;HPM_P1;HPM_P2
2023/01/12 00:02:08;;;;;;;16.73;4.75;;;7.80;99.90;;;;;;4906379;29;20514;-79
2023/01/12 00:04:34;;;;;;;11.10;3.17;;;7.80;99.90;;;;;;4906708;29;20064;-79
2023/01/12 00:07:03;;;;;;;18.95;2.78;;;7.80;99.90;;;;;;4906946;29;20067;-79
2023/01/12 00:09:28;;;;;;;6.10;2.63;;;7.70;99.90;;;;;;4907660;28;20044;-79
2023/01/12 00:11:54;;;;;;;20.10;3.28;;;7.80;99.90;;;;;;4906825;28;20122;-78
2023/01/12 00:14:19;;;;;;;20.83;3.70;;;7.70;99.90;;;;;;4907834;28;20051;-79
2023/01/12 00:16:45;;;;;;;10.60;3.35;;;7.70;99.90;;;;;;4907125;29;20048;-77
2023/01/12 00:19:19;;;;;;;9.68;3.78;;;7.80;99.90;;;;;;4907025;29;20387;-79
2023/01/12 00:22:12;;;;;;;10.35;3.75;;;7.70;99.90;;;;;;4906126;28;20462;-79
2023/01/12 00:24:44;;;;;;;16.35;5.40;;;7.70;99.90;;;;;;4905895;29;20131;-79
2023/01/12 00:27:18;;;;;;;6.30;3.23;;;7.70;99.90;;;;;;4906952;29;20414;-78
2023/01/12 00:29:44;;;;;;;20.95;5.45;;;7.70;99.90;;;;;;4907749;28;20071;-76
2023/01/12 00:32:12;;;;;;;9.13;3.95;;;7.70;99.90;;;;;;4906201;28;20052;-78
2023/01/12 00:34:37;;;;;;;9.55;3.53;;;7.70;99.90;;;;;;4906197;28;20048;-78
2023/01/12 00:37:03;;;;;;;18.52;4.05;;;7.70;99.90;;;;;;4906547;28;20761;-78
2023/01/12 00:39:29;;;;;;;11.20;3.90;;;7.70;99.90;;;;;;4907258;28;20039;-77
2023/01/12 00:47:23;;;;;;;16.77;4.47;;;7.70;99.90;;;;;;4905969;28;20482;-79
2023/01/12 00:49:49;;;;;;;14.80;3.35;;;7.80;99.90;;;;;;4906867;29;20076;-78
2023/01/12 00:52:17;;;;;;;11.13;3.55;;;7.70;99.90;;;;;;4905440;29;20147;-77
2023/01/12 00:54:43;;;;;;;19.15;5.57;;;7.70;99.90;;;;;;4907237;28;20040;-79
2023/01/12 00:57:08;;;;;;;9.32;3.95;;;7.70;99.90;;;;;;4921511;29;20062;-78
2023/01/12 00:59:34;;;;;;;8.95;3.70;;;7.70;99.90;;;;;;4925848;28;20047;-79
2023/01/12 01:02:00;;;;;;;21.73;4.90;;;7.80;99.90;;;;;;4924136;29;20076;-79
2023/01/12 01:04:26;;;;;;;7.20;2.97;;;7.70;99.90;;;;;;4908349;29;20596;-79
2023/01/12 01:06:51;;;;;;;13.55;3.60;;;7.70;99.90;;;;;;4991016;28;20128;-78
2023/01/12 01:09:17;;;;;;;6.25;3.05;;;7.80;99.90;;;;;;4925887;28;20040;-78
2023/01/12 01:11:43;;;;;;;11.38;2.88;;;7.80;99.90;;;;;;4925474;28;20044;-76
2023/01/12 01:14:08;;;;;;;12.43;4.15;;;7.80;99.90;;;;;;4925288;28;20048;-77
2023/01/12 01:16:34;;;;;;;10.73;3.50;;;7.80;99.90;;;;;;4924647;28;20109;-77
2023/01/12 01:19:02;;;;;;;8.07;3.90;;;7.80;99.90;;;;;;4925525;29;20097;-79
2023/01/12 01:21:27;;;;;;;15.20;3.70;;;7.80;99.90;;;;;;4925497;29;20055;-77
2023/01/12 01:23:53;;;;;;;10.95;2.92;;;7.80;99.90;;;;;;4925044;29;20035;-79
2023/01/12 01:26:21;;;;;;;13.52;4.40;;;7.80;99.90;;;;;;4924835;28;20089;-78
2023/01/12 01:28:47;;;;;;;23.60;4.93;;;7.80;99.90;;;;;;4906689;29;20110;-79
2023/01/12 01:31:19;;;;;;;14.48;3.65;;;7.80;99.90;;;;;;4970422;28;20127;-77
2023/01/12 01:33:44;;;;;;;17.10;4.75;;;7.80;99.90;;;;;;4924279;29;20044;-79
2023/01/12 01:36:11;;;;;;;7.10;2.67;;;7.70;99.90;;;;;;4925117;28;20146;-77
2023/01/12 01:38:37;;;;;;;8.35;3.60;;;7.80;99.90;;;;;;4924934;29;20509;-78
2023/01/12 01:41:04;;;;;;;19.98;5.43;;;7.80;99.90;;;;;;4925288;29;20086;-78
2023/01/12 01:43:52;;;;;;;22.10;4.97;;;7.80;99.90;;;;;;4907743;29;20055;-78
2023/01/12 01:46:40;;;;;;;18.35;3.60;;;7.80;99.90;;;;;;4924691;28;20429;-77
2023/01/12 01:49:35;;;;;;;10.88;3.60;;;7.80;99.90;;;;;;4924903;29;20406;-78
2023/01/12 01:52:15;;;;;;;20.00;5.32;;;7.80;99.90;;;;;;4924555;28;20043;-77
2023/01/12 01:54:51;;;;;;;13.70;5.13;;;7.80;99.90;;;;;;4924722;28;20079;-78
2023/01/12 01:57:17;;;;;;;9.98;4.13;;;7.80;99.90;;;;;;4908308;28;20055;-78
2023/01/12 01:59:49;;;;;;;16.63;4.32;;;7.80;99.90;;;;;;4907589;28;20090;-76
2023/01/12 02:02:15;;;;;;;26.48;5.55;;;7.90;99.90;;;;;;4924346;29;20052;-78
2023/01/12 02:04:41;;;;;;;11.27;4.05;;;7.90;99.90;;;;;;4924686;29;20135;-78
2023/01/12 02:07:07;;;;;;;18.73;4.47;;;7.90;99.90;;;;;;4924547;28;20131;-77
2023/01/12 02:09:33;;;;;;;15.80;6.15;;;7.90;99.90;;;;;;4924698;28;20097;-78
2023/01/12 02:17:52;;;;;;;15.75;4.72;;;7.90;99.90;;;;;;4907686;28;20490;-77
2023/01/12 02:20:23;;;;;;;13.93;5.00;;;8.00;99.90;;;;;;4907893;28;20102;-79
2023/01/12 02:23:14;;;;;;;14.63;3.58;;;7.90;99.90;;;;;;4906954;28;20102;-78
2023/01/12 02:25:55;;;;;;;22.05;5.30;;;8.00;99.90;;;;;;4924500;28;20414;-77
2023/01/12 02:28:39;;;;;;;11.98;4.20;;;7.90;99.90;;;;;;4918489;29;20102;-77
2023/01/12 02:31:25;;;;;;;13.77;4.70;;;8.00;99.90;;;;;;4923083;28;20056;-77
2023/01/12 02:34:05;;;;;;;21.80;5.78;;;8.00;99.90;;;;;;4933285;29;20483;-77
2023/01/12 02:36:52;;;;;;;21.80;4.10;;;8.00;99.90;;;;;;4891497;28;20182;-78
2023/01/12 02:39:27;;;;;;;25.50;6.40;;;8.00;99.90;;;;;;4924617;29;20048;-77
2023/01/12 02:45:19;;;;;;;17.48;4.78;;;8.00;99.90;;;;;;4923054;28;20051;-77
2023/01/12 02:48:08;;;;;;;13.50;5.63;;;8.10;99.90;;;;;;4924899;29;20114;-78
2023/01/12 02:50:58;;;;;;;26.83;5.32;;;8.10;99.90;;;;;;4909845;28;20486;-78
2023/01/12 02:53:31;;;;;;;32.65;6.57;;;8.10;99.90;;;;;;4923987;29;20044;-77
2023/01/12 02:55:59;;;;;;;21.67;5.95;;;8.10;99.90;;;;;;4923547;29;20158;-79
2023/01/12 02:58:27;;;;;;;21.05;6.53;;;8.10;99.90;;;;;;4924203;29;20062;-77
2023/01/12 03:00:56;;;;;;;33.53;6.68;;;8.10;99.90;;;;;;4922838;29;20044;-78
2023/01/12 03:03:23;;;;;;;21.45;5.70;;;8.10;99.90;;;;;;4923896;29;20066;-78
2023/01/12 03:05:50;;;;;;;18.25;6.88;;;8.10;99.90;;;;;;4923298;28;20048;-78
2023/01/12 03:08:22;;;;;;;29.58;5.03;;;8.10;99.90;;;;;;4924488;29;20109;-77
2023/01/12 03:10:58;;;;;;;13.18;4.68;;;8.20;99.90;;;;;;4939422;28;20393;-77
2023/01/12 03:13:27;;;;;;;25.80;5.80;;;8.20;99.90;;;;;;4924347;29;20378;-78
2023/01/12 03:15:55;;;;;;;24.58;7.15;;;8.20;99.90;;;;;;4922967;29;20044;-78
2023/01/12 03:18:21;;;;;;;19.17;5.00;;;8.20;99.90;;;;;;4924140;29;20398;-78
2023/01/12 03:20:54;;;;;;;20.30;6.75;;;8.20;99.90;;;;;;4924128;28;20051;-78
2023/01/12 03:23:27;;;;;;;32.13;8.75;;;8.20;99.90;;;;;;4938465;28;20048;-77
2023/01/12 03:25:55;;;;;;;30.10;8.40;;;8.30;99.90;;;;;;4922778;29;20687;-77
2023/01/12 03:28:25;;;;;;;23.00;7.68;;;8.20;99.90;;;;;;4991669;28;20045;-78
2023/01/12 03:30:55;;;;;;;24.95;6.80;;;8.30;99.90;;;;;;4903205;28;20649;-78
2023/01/12 03:33:22;;;;;;;19.45;6.32;;;8.30;99.90;;;;;;4923795;29;20070;-78
2023/01/12 03:36:05;;;;;;;22.27;6.47;;;8.30;99.90;;;;;;4923743;28;20052;-77
2023/01/12 03:38:39;;;;;;;27.08;4.95;;;8.40;99.90;;;;;;4938397;29;20047;-78
2023/01/12 03:41:25;;;;;;;29.65;6.22;;;8.40;99.90;;;;;;4923274;29;20070;-78
2023/01/12 03:43:54;;;;;;;17.70;5.05;;;8.40;99.90;;;;;;4923461;29;20055;-78
2023/01/12 03:46:29;;;;;;;36.90;6.55;;;8.40;99.90;;;;;;4922185;29;20047;-78
2023/01/12 03:49:03;;;;;;;17.00;6.05;;;8.40;99.90;;;;;;4937655;29;20047;-78
2023/01/12 03:51:33;;;;;;;21.95;4.88;;;8.40;99.90;;;;;;4906193;29;20039;-78
2023/01/12 03:53:59;;;;;;;12.68;5.22;;;8.40;99.90;;;;;;4923220;29;20042;-78
2023/01/12 03:56:30;;;;;;;22.88;7.25;;;8.40;99.90;;;;;;4922830;29;20067;-77
2023/01/12 03:58:56;;;;;;;16.67;4.80;;;8.40;99.90;;;;;;4938185;29;20391;-77
2023/01/12 04:01:22;;;;;;;15.88;6.15;;;8.40;99.90;;;;;;4904914;28;20044;-77
2023/01/12 04:03:48;;;;;;;17.30;4.90;;;8.40;99.90;;;;;;4923971;29;20069;-78
2023/01/12 04:06:13;;;;;;;18.80;4.88;;;8.40;99.90;;;;;;4923113;28;20565;-77
2023/01/12 04:08:39;;;;;;;15.02;4.32;;;8.40;99.90;;;;;;4923265;28;20044;-78
2023/01/12 04:13:51;;;;;;;12.75;3.05;;;8.40;99.90;;;;;;4922767;28;20051;-78
2023/01/12 04:16:17;;;;;;;9.73;3.85;;;8.40;99.90;;;;;;4922914;28;20052;-77
2023/01/12 04:18:43;;;;;;;9.70;3.25;;;8.40;99.90;;;;;;4925947;29;20109;-77
2023/01/12 04:22:41;;;;;;;6.88;2.38;;;8.40;99.90;;;;;;4926021;29;20510;-77
2023/01/12 04:23:55;;;;;;;15.52;3.45;;;8.40;99.90;;;;;;4909040;29;20578;-78
2023/01/12 04:26:20;;;;;;;6.50;3.22;;;8.40;99.90;;;;;;4926286;28;20044;-78
2023/01/12 04:28:46;;;;;;;9.27;3.53;;;8.30;99.90;;;;;;4926466;28;20083;-78
2023/01/12 04:31:12;;;;;;;4.65;2.25;;;8.30;99.90;;;;;;4925078;28;20044;-78
2023/01/12 04:33:37;;;;;;;4.10;2.10;;;8.30;99.90;;;;;;4909390;28;20078;-77
2023/01/12 04:36:03;;;;;;;10.40;2.53;;;8.30;99.90;;;;;;4926148;28;20155;-78
2023/01/12 04:38:28;;;;;;;15.75;3.00;;;8.30;99.90;;;;;;4909126;29;20402;-78
2023/01/12 04:40:54;;;;;;;20.83;2.72;;;8.30;99.90;;;;;;4925776;28;20082;-77
2023/01/12 04:43:20;;;;;;;13.73;3.42;;;8.20;99.90;;;;;;4925859;28;20044;-77
2023/01/12 04:45:46;;;;;;;12.68;4.10;;;8.30;99.90;;;;;;4925492;28;20130;-77
2023/01/12 04:48:13;;;;;;;8.70;2.88;;;8.30;99.90;;;;;;4908686;29;20062;-78
2023/01/12 04:50:39;;;;;;;15.38;5.30;;;8.20;99.90;;;;;;4926009;28;20039;-78
2023/01/12 04:53:07;;;;;;;8.02;3.20;;;8.20;99.90;;;;;;4908707;29;20047;-78
2023/01/12 04:55:35;;;;;;;9.85;4.25;;;8.20;99.90;;;;;;4926085;28;20074;-78
2023/01/12 04:58:01;;;;;;;7.30;2.85;;;8.20;99.90;;;;;;4925557;29;20047;-76
2023/01/12 05:00:27;;;;;;;7.03;3.20;;;8.20;99.90;;;;;;4925001;28;20048;-78
2023/01/12 05:02:58;;;;;;;10.30;2.42;;;8.20;99.90;;;;;;4925104;28;20047;-77
2023/01/12 05:05:24;;;;;;;10.73;2.85;;;8.20;99.90;;;;;;4925807;29;20115;-77
2023/01/12 05:10:34;;;;;;;7.72;2.60;;;8.20;99.90;;;;;;4908988;28;20043;-77
2023/01/12 05:13:00;;;;;;;5.25;2.00;;;8.20;99.90;;;;;;4924988;28;20039;-78
2023/01/12 05:15:25;;;;;;;5.03;2.15;;;8.20;99.90;;;;;;4924969;28;20079;-77
2023/01/12 05:17:53;;;;;;;7.63;2.20;;;8.20;99.90;;;;;;4925470;28;20048;-77
2023/01/12 05:20:19;;;;;;;4.28;1.83;;;8.20;99.90;;;;;;4908238;29;20078;-77
2023/01/12 05:22:47;;;;;;;3.50;1.63;;;8.20;99.90;;;;;;4926064;29;20051;-77
2023/01/12 05:25:13;;;;;;;7.38;2.22;;;8.20;99.90;;;;;;4925400;28;20135;-78
2023/01/12 05:27:39;;;;;;;6.18;1.40;;;8.20;99.90;;;;;;4914214;28;20495;-77
2023/01/12 05:30:05;;;;;;;3.92;1.55;;;8.30;99.90;;;;;;4970264;28;20090;-79
2023/01/12 05:32:39;;;;;;;3.55;1.45;;;8.30;99.90;;;;;;4906336;29;20044;-77
2023/01/12 05:35:06;;;;;;;2.30;1.40;;;8.30;99.90;;;;;;4906238;28;20040;-78
2023/01/12 05:37:32;;;;;;;1.63;1.38;;;8.30;99.90;;;;;;4971190;28;20066;-77
2023/01/12 05:39:57;;;;;;;3.60;1.08;;;8.30;99.90;;;;;;4906492;28;20052;-78
2023/01/12 05:45:08;;;;;;;2.42;1.05;;;8.30;99.90;;;;;;4921651;28;20062;-77
2023/01/12 05:47:33;;;;;;;2.40;1.27;;;8.30;99.90;;;;;;4908282;28;20067;-78
2023/01/12 05:49:59;;;;;;;1.40;1.00;;;8.30;99.90;;;;;;4924846;28;20410;-79
2023/01/12 05:52:25;;;;;;;2.75;1.10;;;8.30;99.90;;;;;;4908326;29;20044;-76
2023/01/12 05:54:50;;;;;;;1.30;0.80;;;8.30;99.90;;;;;;4982715;28;20052;-78
2023/01/12 05:57:16;;;;;;;2.65;1.13;;;8.40;99.90;;;;;;5005079;28;20054;-78
2023/01/12 05:59:41;;;;;;;0.75;0.63;;;8.40;99.90;;;;;;5004309;28;20050;-77
2023/01/12 06:02:10;;;;;;;1.67;0.80;;;8.40;99.90;;;;;;5004219;28;20562;-78
2023/01/12 06:04:37;;;;;;;1.33;0.95;;;8.40;99.90;;;;;;4993502;28;20063;-78
2023/01/12 06:07:03;;;;;;;3.50;1.20;;;8.40;99.90;;;;;;4909213;29;20044;-77
2023/01/12 06:09:28;;;;;;;4.38;1.77;;;8.50;99.90;;;;;;4906777;29;20062;-77
2023/01/12 06:14:38;;;;;;;6.10;2.00;;;8.50;99.90;;;;;;4924013;28;20129;-77
2023/01/12 06:17:04;;;;;;;9.25;2.97;;;8.50;99.90;;;;;;4924516;28;20490;-77
2023/01/12 06:19:30;;;;;;;12.27;2.08;;;8.60;99.90;;;;;;4924838;28;20054;-77
2023/01/12 06:21:58;;;;;;;13.98;3.40;;;8.70;99.90;;;;;;4918147;28;20105;-78
2023/01/12 06:24:27;;;;;;;22.50;4.28;;;8.70;99.90;;;;;;4906480;28;20044;-77
2023/01/12 06:26:55;;;;;;;15.10;4.22;;;8.80;99.90;;;;;;4921188;28;20134;-77
2023/01/12 06:29:21;;;;;;;18.77;6.15;;;8.90;99.90;;;;;;4907271;28;20039;-76
2023/01/12 06:31:46;;;;;;;22.95;6.82;;;8.90;99.90;;;;;;4923465;28;20379;-78
2023/01/12 06:34:12;;;;;;;18.50;5.18;;;9.00;99.90;;;;;;4936073;28;20032;-76
2023/01/12 06:36:38;;;;;;;26.05;5.60;;;9.10;99.90;;;;;;4924983;28;20063;-77
2023/01/12 06:39:04;;;;;;;75.35;8.80;;;9.10;99.90;;;;;;4923795;28;20497;-76
2023/01/12 06:44:16;;;;;;;15.02;4.82;;;9.20;99.90;;;;;;4908461;28;20055;-77
2023/01/12 06:46:41;;;;;;;13.10;4.07;;;9.30;99.90;;;;;;4923876;28;20040;-77
2023/01/12 06:49:07;;;;;;;26.77;7.80;;;9.30;99.90;;;;;;4927938;29;20042;-76
2023/01/12 06:51:33;;;;;;;13.48;4.75;;;9.40;99.90;;;;;;4937549;29;20399;-77
2023/01/12 06:53:58;;;;;;;21.77;5.72;;;9.40;99.90;;;;;;4921730;28;20040;-78
2023/01/12 06:56:24;;;;;;;30.83;4.57;;;9.40;99.90;;;;;;4922810;28;20162;-78
2023/01/12 06:58:49;;;;;;;19.05;4.60;;;9.50;99.90;;;;;;4922836;28;20328;-77
2023/01/12 07:01:15;;;;;;;23.55;6.25;;;9.40;99.90;;;;;;4922117;28;20042;-76
2023/01/12 07:03:41;;;;;;;20.58;5.25;;;9.50;99.90;;;;;;4923305;28;20047;-75
2023/01/12 07:06:07;;;;;;;21.10;4.35;;;9.60;99.90;;;;;;4922626;28;20036;-76
2023/01/12 07:08:32;;;;;;;25.50;5.88;;;9.60;99.90;;;;;;4922645;28;20390;-77
2023/01/12 07:11:02;;;;;;;21.25;4.47;;;9.60;99.90;;;;;;4922924;29;20406;-77
2023/01/12 07:13:29;;;;;;;15.30;5.03;;;9.60;99.90;;;;;;4905987;29;20122;-77
2023/01/12 07:16:00;;;;;;;20.70;4.43;;;9.60;99.90;;;;;;4904692;29;20775;-77
2023/01/12 07:18:27;;;;;;;19.55;4.55;;;9.60;99.90;;;;;;4924670;29;20051;-78
2023/01/12 07:20:53;;;;;;;15.20;5.55;;;9.70;99.90;;;;;;4923015;28;20051;-77
2023/01/12 07:23:18;;;;;;;7.40;3.72;;;9.70;99.90;;;;;;4923142;28;20047;-77
2023/01/12 07:25:44;;;;;;;19.05;5.13;;;9.60;99.90;;;;;;4923669;28;20048;-77
2023/01/12 07:28:10;;;;;;;13.82;5.53;;;9.70;99.90;;;;;;4907241;29;20430;-77
2023/01/12 07:30:35;;;;;;;18.67;5.45;;;9.70;99.90;;;;;;4902522;29;20044;-77
2023/01/12 07:33:12;;;;;;;15.93;6.03;;;9.70;99.90;;;;;;4903335;29;20562;-77
2023/01/12 07:35:38;;;;;;;17.10;6.35;;;9.80;99.90;;;;;;4903736;29;20066;-77
2023/01/12 07:38:05;;;;;;;18.00;5.50;;;9.80;99.90;;;;;;4967710;28;20059;-77
2023/01/12 07:40:31;;;;;;;12.60;4.28;;;9.80;99.90;;;;;;4903481;29;20076;-77
2023/01/12 07:43:05;;;;;;;15.85;4.88;;;9.80;99.90;;;;;;5001035;28;20090;-77
2023/01/12 07:45:31;;;;;;;15.73;4.78;;;9.90;99.90;;;;;;4967880;28;20106;-77
2023/01/12 07:47:56;;;;;;;22.15;5.40;;;9.90;99.90;;;;;;4902712;28;20058;-77
2023/01/12 07:50:24;;;;;;;23.23;5.95;;;9.90;99.90;;;;;;4903399;28;20410;-76
2023/01/12 07:52:50;;;;;;;16.00;4.10;;;9.90;99.90;;;;;;4905745;29;20044;-76
2023/01/12 07:55:18;;;;;;;16.88;5.82;;;9.90;99.90;;;;;;4907167;28;20442;-77
2023/01/12 07:57:52;;;;;;;15.48;3.88;;;9.90;99.90;;;;;;4906407;28;20063;-76
2023/01/12 08:00:22;;;;;;;9.43;3.40;;;9.90;99.90;;;;;;4971681;28;20062;-76
2023/01/12 08:02:48;;;;;;;23.60;3.00;;;9.90;99.90;;;;;;4907172;29;20041;-77
2023/01/12 08:05:14;;;;;;;18.85;4.68;;;9.90;99.90;;;;;;4906669;29;20055;-77
2023/01/12 08:07:39;;;;;;;14.43;6.22;;;10.00;99.90;;;;;;4906538;28;20052;-77
2023/01/12 08:10:05;;;;;;;17.17;5.03;;;10.00;99.90;;;;;;4906377;28;20522;-76
2023/01/12 08:12:31;;;;;;;11.35;4.05;;;10.00;99.90;;;;;;4905596;29;20763;-77
2023/01/12 08:14:57;;;;;;;16.30;5.40;;;10.00;99.90;;;;;;4905705;29;20048;-77
2023/01/12 08:17:23;;;;;;;13.32;4.63;;;9.90;99.90;;;;;;4971419;28;20349;-77
2023/01/12 08:19:54;;;;;;;23.48;3.95;;;10.00;99.90;;;;;;4906275;29;20295;-77
2023/01/12 08:22:26;;;;;;;15.80;4.17;;;10.00;99.90;;;;;;4905876;29;20059;-77
2023/01/12 08:24:58;;;;;;;8.98;2.65;;;10.00;99.90;;;;;;4905490;29;20054;-76
2023/01/12 08:27:27;;;;;;;9.90;4.22;;;10.00;99.90;;;;;;4982283;28;20047;-77
2023/01/12 08:29:57;;;;;;;16.80;4.18;;;10.00;99.90;;;;;;4906635;28;20051;-77
2023/01/12 08:32:23;;;;;;;13.07;3.30;;;10.10;99.90;;;;;;4924629;29;20109;-77
2023/01/12 08:34:52;;;;;;;9.43;4.18;;;10.10;99.90;;;;;;4923632;28;20048;-78
2023/01/12 08:37:21;;;;;;;10.38;3.58;;;10.10;99.90;;;;;;4924981;28;20075;-77
2023/01/12 08:39:48;;;;;;;15.43;3.78;;;10.10;99.90;;;;;;4908107;28;20461;-77
2023/01/12 08:42:13;;;;;;;16.08;3.90;;;10.10;99.90;;;;;;4907525;28;20383;-77
2023/01/12 08:44:39;;;;;;;16.25;4.93;;;10.10;99.90;;;;;;4924238;28;20055;-77
2023/01/12 08:47:12;;;;;;;8.95;3.60;;;10.10;99.90;;;;;;4923908;28;20051;-77
2023/01/12 08:49:38;;;;;;;9.00;2.63;;;10.10;99.90;;;;;;4924773;28;20040;-76
2023/01/12 08:52:04;;;;;;;11.98;4.00;;;10.20;99.90;;;;;;4923957;28;20093;-77
2023/01/12 08:54:29;;;;;;;10.07;3.55;;;10.10;99.90;;;;;;4924796;28;20414;-77
2023/01/12 08:56:55;;;;;;;21.20;4.35;;;10.10;99.90;;;;;;4923537;28;20375;-77
2023/01/12 08:59:21;;;;;;;10.27;3.75;;;10.10;99.90;;;;;;4923464;28;20418;-77
2023/01/12 09:01:46;;;;;;;9.57;4.18;;;10.10;99.90;;;;;;4907844;28;20043;-76
2023/01/12 09:04:12;;;;;;;17.65;3.90;;;10.10;99.90;;;;;;4905511;28;20067;-77
2023/01/12 09:06:41;;;;;;;14.88;3.97;;;10.10;99.90;;;;;;4924596;28;20497;-78
2023/01/12 09:09:15;;;;;;;12.48;3.60;;;10.10;99.90;;;;;;4924045;28;20048;-77
2023/01/12 09:11:42;;;;;;;10.70;4.15;;;10.20;99.90;;;;;;4924060;29;20047;-77
2023/01/12 09:14:09;;;;;;;16.00;3.45;;;10.20;99.90;;;;;;4923258;28;20154;-78
2023/01/12 09:16:36;;;;;;;13.43;2.70;;;10.20;99.90;;;;;;4924294;28;20569;-77
2023/01/12 09:19:02;;;;;;;7.00;3.53;;;10.20;99.90;;;;;;4906732;29;20087;-77
2023/01/12 09:21:29;;;;;;;12.88;2.97;;;10.20;99.90;;;;;;4923855;28;20048;-77
2023/01/12 09:23:55;;;;;;;14.43;2.65;;;10.30;99.90;;;;;;4907029;28;20418;-77
2023/01/12 09:26:30;;;;;;;10.68;2.80;;;10.30;99.90;;;;;;4924091;28;20069;-77
2023/01/12 09:28:58;;;;;;;10.85;3.78;;;10.30;99.90;;;;;;4923215;29;20417;-76
2023/01/12 09:31:24;;;;;;;11.15;3.15;;;10.40;99.90;;;;;;4923824;28;20043;-77
2023/01/12 09:33:49;;;;;;;14.88;3.67;;;10.30;99.90;;;;;;4923784;29;20036;-78
2023/01/12 09:36:18;;;;;;;9.18;3.17;;;10.30;99.90;;;;;;4923956;29;20698;-77
2023/01/12 09:38:45;;;;;;;5.70;2.80;;;10.30;99.90;;;;;;4924039;29;20556;-77
2023/01/12 09:46:57;;;;;;;12.77;3.70;;;10.30;99.90;;;;;;4923511;29;20083;-77
2023/01/12 09:46:57;;;;;;;15.02;3.88;;;10.40;99.90;;;;;;4923357;29;20098;-77
2023/01/12 09:49:31;;;;;;;19.17;3.95;;;10.40;99.90;;;;;;4923732;29;20044;-76
2023/01/12 09:52:05;;;;;;;12.10;3.40;;;10.40;99.90;;;;;;4923269;29;20118;-78
2023/01/12 09:54:33;;;;;;;9.73;4.07;;;10.40;99.90;;;;;;4924141;29;20040;-77
2023/01/12 09:57:20;;;;;;;7.38;2.83;;;10.40;99.90;;;;;;4905947;29;20139;-77
2023/01/12 10:00:01;;;;;;;8.88;2.88;;;10.40;99.90;;;;;;4922946;29;20279;-77
2023/01/12 10:02:27;;;;;;;6.55;2.22;;;10.40;99.90;;;;;;4923582;29;20047;-77
2023/01/12 10:04:55;;;;;;;7.68;3.00;;;10.40;99.90;;;;;;4906178;29;20498;-77
2023/01/12 10:07:21;;;;;;;12.15;3.38;;;10.50;99.90;;;;;;4923467;29;20040;-76
2023/01/12 10:09:47;;;;;;;13.05;3.30;;;10.40;99.90;;;;;;4923521;28;20102;-77
2023/01/12 10:12:25;;;;;;;13.50;4.47;;;10.40;99.90;;;;;;4923323;29;20071;-76
2023/01/12 10:15:10;;;;;;;22.80;3.78;;;10.40;99.90;;;;;;4920972;29;20064;-78
2023/01/12 10:18:06;;;;;;;9.98;3.92;;;10.40;99.90;;;;;;4922996;29;20050;-76
2023/01/12 10:20:41;;;;;;;15.90;4.70;;;10.50;99.90;;;;;;4923397;29;20048;-77
2023/01/12 10:23:07;;;;;;;10.88;3.42;;;10.40;99.90;;;;;;4923252;29;20044;-78
2023/01/12 10:26:01;;;;;;;10.15;4.20;;;10.40;99.90;;;;;;4923209;29;20513;-77
2023/01/12 10:28:32;;;;;;;17.50;4.38;;;10.40;99.90;;;;;;4905570;29;20060;-77
2023/01/12 10:30:59;;;;;;;10.20;3.88;;;10.40;99.90;;;;;;4922001;28;20044;-77
2023/01/12 10:33:25;;;;;;;25.05;4.53;;;10.40;99.90;;;;;;4923172;28;20471;-76
2023/01/12 10:36:02;;;;;;;9.85;2.45;;;10.40;99.90;;;;;;4922555;28;20521;-77
2023/01/12 10:38:37;;;;;;;11.73;3.53;;;10.50;99.90;;;;;;4923159;28;20052;-77
2023/01/12 10:41:20;;;;;;;12.93;4.82;;;10.50;99.90;;;;;;4905458;28;20067;-76
2023/01/12 10:43:55;;;;;;;15.88;5.70;;;10.60;99.90;;;;;;4921108;29;20063;-77
2023/01/12 10:46:23;;;;;;;12.15;3.97;;;10.60;99.90;;;;;;4921420;28;20292;-77
2023/01/12 10:48:54;;;;;;;14.30;3.10;;;10.60;99.90;;;;;;4905779;28;20074;-77
2023/01/12 10:51:26;;;;;;;11.60;3.38;;;10.60;99.90;;;;;;4922857;28;20090;-77
2023/01/12 10:54:15;;;;;;;12.60;3.95;;;10.60;99.90;;;;;;4922868;28;20056;-76
2023/01/12 10:56:52;;;;;;;13.82;3.28;;;10.60;99.90;;;;;;4922576;29;20252;-77
2023/01/12 10:59:20;;;;;;;19.17;3.50;;;10.60;99.90;;;;;;4905318;28;20110;-77
2023/01/12 11:01:50;;;;;;;13.68;3.17;;;10.70;99.90;;;;;;4923049;28;20051;-77
2023/01/12 11:04:26;;;;;;;13.27;4.32;;;10.70;99.90;;;;;;4906241;28;20035;-77
2023/01/12 11:06:58;;;;;;;11.63;4.47;;;10.70;99.90;;;;;;4922351;28;20086;-76
2023/01/12 11:09:26;;;;;;;14.25;3.22;;;10.70;99.90;;;;;;4922812;28;20074;-77
2023/01/12 11:11:54;;;;;;;13.98;3.47;;;10.70;99.90;;;;;;4922085;28;20470;-77
2023/01/12 11:14:24;;;;;;;21.55;5.65;;;10.70;99.90;;;;;;4921855;28;20402;-77
2023/01/12 11:16:50;;;;;;;19.80;4.22;;;10.80;99.90;;;;;;4932220;29;20136;-75
2023/01/12 11:19:26;;;;;;;6.00;3.08;;;10.80;99.90;;;;;;4924059;29;20086;-77
2023/01/12 11:22:10;;;;;;;10.77;3.50;;;10.80;99.90;;;;;;4923149;29;20413;-76
2023/01/12 11:24:40;;;;;;;9.88;2.65;;;10.80;99.90;;;;;;4958826;28;20339;-77
2023/01/12 11:27:05;;;;;;;17.45;2.63;;;10.80;99.90;;;;;;4920294;28;20138;-78
2023/01/12 11:29:56;;;;;;;6.40;3.55;;;10.80;99.90;;;;;;4928568;29;20134;-78
2023/01/12 11:32:29;;;;;;;13.00;4.07;;;10.90;99.90;;;;;;4944113;29;20043;-79
2023/01/12 11:35:07;;;;;;;15.75;3.80;;;10.90;99.90;;;;;;4944753;29;20394;-78
2023/01/12 11:37:37;;;;;;;11.57;2.75;;;10.90;99.90;;;;;;4921402;29;20333;-79
2023/01/12 11:40:16;;;;;;;8.07;3.00;;;10.90;99.90;;;;;;4936732;29;20478;-78
2023/01/12 11:45:45;;;;;;;13.82;3.25;;;10.90;99.90;;;;;;4925088;28;20058;-79
2023/01/12 11:48:22;;;;;;;17.58;4.43;;;10.90;99.90;;;;;;4940390;29;20442;-79
2023/01/12 11:50:49;;;;;;;7.95;2.78;;;10.90;99.90;;;;;;4926287;29;20139;-79
2023/01/12 11:53:24;;;;;;;10.82;3.67;;;10.90;99.90;;;;;;4928449;29;20052;-78
2023/01/12 11:56:18;;;;;;;7.40;2.22;;;10.90;99.90;;;;;;4944064;29;20494;-79
2023/01/12 11:58:59;;;;;;;7.70;2.03;;;11.00;99.90;;;;;;4942665;28;20740;-80
2023/01/12 12:01:46;;;;;;;9.95;4.43;;;10.90;99.90;;;;;;4934373;28;20048;-79
2023/01/12 12:04:49;;;;;;;14.50;3.45;;;10.90;99.90;;;;;;4925190;29;20043;-79
2023/01/12 12:07:37;;;;;;;;;;;10.90;99.90;;;;;;4942590;29;20405;-79
2023/01/12 12:10:14;;;;;;;16.85;3.97;;;10.90;99.90;;;;;;4927988;28;19923;-79
2023/01/12 12:13:08;;;;;;;13.73;3.53;;;10.90;99.90;;;;;;4930768;29;20410;-78
2023/01/12 12:15:58;;;;;;;13.20;3.35;;;10.90;99.90;;;;;;4924631;28;20059;-79
2023/01/12 12:18:48;;;;;;;16.00;4.35;;;10.80;99.90;;;;;;4911289;28;20074;-79
2023/01/12 12:21:45;;;;;;;12.05;3.97;;;10.90;99.90;;;;;;4901581;28;20178;-83
2023/01/12 12:24:29;;;;;;;12.57;4.05;;;10.90;99.90;;;;;;4938165;28;20047;-81
2023/01/12 12:27:23;;;;;;;15.02;3.42;;;10.80;99.90;;;;;;4926204;29;20090;-81
2023/01/12 12:30:09;;;;;;;12.70;4.53;;;10.90;99.90;;;;;;4928196;28;20100;-80
2023/01/12 12:33:14;;;;;;;7.97;2.70;;;10.90;99.90;;;;;;4911960;29;20040;-80
2023/01/12 12:35:53;;;;;;;16.85;4.22;;;10.80;99.90;;;;;;4976418;28;20063;-81
2023/01/12 12:38:43;;;;;;;7.97;2.53;;;10.80;99.90;;;;;;4932273;28;20059;-81
2023/01/12 12:47:20;;;;;;;7.50;3.75;;;10.70;99.90;;;;;;4939860;28;20574;-80
2023/01/12 12:49:46;;;;;;;5.00;3.40;;;10.70;99.90;;;;;;4893870;28;20141;-83
2023/01/12 12:52:12;;;;;;;14.45;3.47;;;10.70;99.90;;;;;;4897582;29;20575;-83
2023/01/12 12:54:39;;;;;;;13.80;5.63;;;10.70;99.90;;;;;;4925156;28;20039;-80
2023/01/12 12:57:04;;;;;;;8.73;3.95;;;10.80;99.90;;;;;;4924558;28;20060;-79
2023/01/12 12:59:30;;;;;;;8.60;3.10;;;10.80;99.90;;;;;;4923713;28;20167;-81
2023/01/12 13:01:58;;;;;;;14.70;4.00;;;10.70;99.90;;;;;;4925162;29;20137;-84
2023/01/12 13:04:42;;;;;;;11.43;3.22;;;10.70;99.90;;;;;;4925536;28;20047;-83
2023/01/12 13:07:15;;;;;;;11.30;2.83;;;10.80;99.90;;;;;;4924290;28;20047;-80
2023/01/12 13:09:42;;;;;;;18.33;3.80;;;10.80;99.90;;;;;;4925555;28;20048;-80
2023/01/12 13:12:15;;;;;;;10.45;3.33;;;10.80;99.90;;;;;;4925001;29;20047;-80
2023/01/12 13:14:42;;;;;;;12.63;3.60;;;10.80;99.90;;;;;;4924185;29;20051;-80
2023/01/12 13:17:19;;;;;;;12.20;4.13;;;10.80;99.90;;;;;;4907697;28;20054;-81
2023/01/12 13:20:09;;;;;;;13.85;3.95;;;10.70;99.90;;;;;;4924871;28;20321;-81
2023/01/12 13:22:42;;;;;;;12.10;3.47;;;10.70;99.90;;;;;;4924661;29;20479;-81
2023/01/12 13:25:18;;;;;;;13.25;3.80;;;10.70;99.90;;;;;;4924905;29;21049;-83
2023/01/12 13:30:27;;;;;;;10.88;4.97;;;10.80;99.90;;;;;;4940970;28;20051;-80
2023/01/12 13:33:21;;;;;;;13.60;2.67;;;10.70;99.90;;;;;;4924425;28;20089;-78
2023/01/12 13:35:46;;;;;;;17.60;3.97;;;10.80;99.90;;;;;;4938394;29;20243;-79
2023/01/12 13:38:42;;;;;;;14.38;4.13;;;10.80;99.90;;;;;;4924947;28;20110;-79
2023/01/12 13:43:13;;;;;;;10.00;5.10;;;10.80;99.90;;;;;;4926018;29;20052;-78
2023/01/12 13:44:03;;;;;;;10.57;3.80;;;10.70;99.90;;;;;;4932541;28;20044;-79
2023/01/12 13:46:45;;;;;;;7.93;3.13;;;10.80;99.90;;;;;;4921707;28;20174;-81
2023/01/12 13:49:28;;;;;;;15.05;4.88;;;10.70;99.90;;;;;;4923885;29;20366;-80